createdAt,value
2022-08-24T00:01:32.605Z,95420.97
2022-08-24T00:04:02.653Z,95421.06
2022-08-24T00:06:31.836Z,95423.81
2022-08-24T00:09:00.331Z,95431.13
2022-08-24T00:11:28.398Z,95429.56
2022-08-24T00:13:57.142Z,95415.84
2022-08-24T00:16:26.040Z,95426.91
2022-08-24T00:18:54.394Z,95415.13
2022-08-24T00:21:23.639Z,95412.16
2022-08-24T00:23:51.479Z,95411.44
2022-08-24T00:26:28.837Z,95403.34
2022-08-24T00:28:57.554Z,95418.16
2022-08-24T00:31:25.704Z,95415.78
2022-08-24T00:33:53.602Z,95417.94
2022-08-24T00:36:22.997Z,95415.50
2022-08-24T00:38:50.872Z,95412.06
2022-08-24T00:41:19.177Z,95408.16
2022-08-24T00:43:54.235Z,95403.75
2022-08-24T00:46:27.766Z,95399.41
2022-08-24T00:49:02.784Z,95399.84
2022-08-24T00:51:37.672Z,95399.41
2022-08-24T00:54:10.136Z,95399.19
2022-08-24T00:56:43.759Z,95408.38
2022-08-24T00:59:16.017Z,95401.41
2022-08-24T01:01:44.501Z,95407.59
2022-08-24T01:04:19.223Z,95404.53
2022-08-24T01:06:49.973Z,95413.16
2022-08-24T01:09:18.263Z,95408.69
2022-08-24T01:11:47.714Z,95407.75
2022-08-24T01:14:15.612Z,95406.22
2022-08-24T01:17:01.121Z,95405.53
2022-08-24T01:19:36.455Z,95402.47
2022-08-24T01:22:20.869Z,95402.91
2022-08-24T01:24:50.496Z,95396.38
2022-08-24T01:27:20.470Z,95388.47
2022-08-24T01:29:55.284Z,95391.06
2022-08-24T01:32:25.412Z,95388.69
2022-08-24T01:34:53.264Z,95386.31
2022-08-24T01:37:21.344Z,95394.03
2022-08-24T01:39:55.328Z,95398.28
2022-08-24T01:42:23.257Z,95392.91
2022-08-24T01:44:51.196Z,95393.06
2022-08-24T01:47:19.123Z,95390.47
2022-08-24T01:49:49.894Z,95392.97
2022-08-24T01:52:24.536Z,95387.44
2022-08-24T01:54:54.915Z,95380.72
2022-08-24T01:57:25.627Z,95386.22
2022-08-24T01:59:53.720Z,95391.56
2022-08-24T02:02:26.212Z,95390.34
2022-08-24T02:04:54.200Z,95387.13
2022-08-24T02:07:22.739Z,95379.63
2022-08-24T02:09:51.168Z,95392.25
2022-08-24T02:12:21.973Z,95395.31
2022-08-24T02:14:49.843Z,95393.97
2022-08-24T02:17:18.275Z,95393.78
2022-08-24T02:19:48.045Z,95393.75
2022-08-24T02:22:15.960Z,95393.06
2022-08-24T02:24:43.831Z,95387.69
2022-08-24T02:27:11.731Z,95386.31
2022-08-24T02:29:41.342Z,95386.31
2022-08-24T02:32:09.289Z,95391.84
2022-08-24T02:34:37.970Z,95397.22
2022-08-24T02:37:07.704Z,95386.94
2022-08-24T02:39:35.594Z,95390.69
2022-08-24T02:42:07.060Z,95384.16
2022-08-24T02:44:35.083Z,95394.03
2022-08-24T02:47:04.484Z,95389.09
2022-08-24T02:49:34.735Z,95397.63
2022-08-24T02:52:03.252Z,95391.66
2022-08-24T02:54:33.065Z,95398.06
2022-08-24T02:57:00.967Z,95394.22
2022-08-24T02:59:29.285Z,95395.03
2022-08-24T03:01:57.827Z,95394.41
2022-08-24T03:04:27.839Z,95390.69
2022-08-24T03:06:55.976Z,95391.69
2022-08-24T03:09:24.183Z,95389.91
2022-08-24T03:11:58.331Z,95377.03
2022-08-24T03:14:26.250Z,95373.25
2022-08-24T03:16:54.771Z,95386.44
2022-08-24T03:19:23.847Z,95384.66
2022-08-24T03:21:55.133Z,95383.84
2022-08-24T03:24:23.408Z,95390.34
2022-08-24T03:26:51.989Z,95383.22
2022-08-24T03:29:19.994Z,95387.00
2022-08-24T03:31:48.354Z,95392.56
2022-08-24T03:34:16.617Z,95376.00
2022-08-24T03:36:47.007Z,95389.44
2022-08-24T03:39:18.495Z,95383.59
2022-08-24T03:41:49.524Z,95402.19
2022-08-24T03:44:21.270Z,95397.69
2022-08-24T03:46:50.939Z,95404.59
2022-08-24T03:49:18.815Z,95400.81
2022-08-24T03:51:47.041Z,95393.91
2022-08-24T03:54:15.334Z,95402.22
2022-08-24T03:56:44.592Z,95406.78
2022-08-24T03:59:16.599Z,95399.84
2022-08-24T04:01:48.889Z,95397.06
2022-08-24T04:04:16.843Z,95392.50
2022-08-24T04:06:46.889Z,95389.91
2022-08-24T04:09:15.972Z,95406.94
2022-08-24T04:11:51.836Z,95403.56
2022-08-24T04:14:26.863Z,95408.91
2022-08-24T04:17:05.595Z,95403.22
2022-08-24T04:19:38.412Z,95399.63
2022-08-24T04:22:06.409Z,95404.38
2022-08-24T04:24:34.347Z,95399.03
2022-08-24T04:27:04.436Z,95409.84
2022-08-24T04:29:35.816Z,95402.69
2022-08-24T04:32:04.106Z,95400.69
2022-08-24T04:34:32.032Z,95401.28
2022-08-24T04:37:00.086Z,95404.09
2022-08-24T04:39:29.791Z,95401.56
2022-08-24T04:42:17.629Z,95407.69
2022-08-24T04:44:45.916Z,95401.75
2022-08-24T04:47:14.945Z,95406.09
2022-08-24T04:49:42.912Z,95404.91
2022-08-24T04:52:11.196Z,95415.81
2022-08-24T04:54:40.098Z,95412.84
2022-08-24T04:57:14.711Z,95418.00
2022-08-24T04:59:47.315Z,95419.50
2022-08-24T05:02:15.518Z,95415.66
2022-08-24T05:04:46.047Z,95423.25
2022-08-24T05:07:13.946Z,95420.81
2022-08-24T05:09:44.319Z,95424.97
2022-08-24T05:12:12.900Z,95424.72
2022-08-24T05:14:50.568Z,95435.00
2022-08-24T05:17:18.578Z,95433.63
2022-08-24T05:19:46.533Z,95434.03
2022-08-24T05:22:14.372Z,95434.88
2022-08-24T05:24:47.708Z,95434.16
2022-08-24T05:27:15.852Z,95441.91
2022-08-24T05:29:47.924Z,95443.34
2022-08-24T05:32:19.862Z,95442.09
2022-08-24T05:34:48.951Z,95443.63
2022-08-24T05:37:16.877Z,95448.63
2022-08-24T05:40:08.532Z,95458.38
2022-08-24T05:42:39.236Z,95464.84
2022-08-24T05:45:10.533Z,95463.34
2022-08-24T05:47:40.575Z,95473.34
2022-08-24T05:50:22.363Z,95470.91
2022-08-24T05:52:50.206Z,95464.22
2022-08-24T05:55:18.388Z,95465.44
2022-08-24T05:57:47.013Z,95471.88
2022-08-24T06:00:21.093Z,95471.19
2022-08-24T06:02:53.578Z,95474.63
2022-08-24T06:05:22.910Z,95465.75
2022-08-24T06:07:50.954Z,95477.59
2022-08-24T06:10:36.231Z,95475.22
2022-08-24T06:13:05.696Z,95475.06
2022-08-24T06:15:34.996Z,95487.00
2022-08-24T06:18:05.763Z,95485.72
2022-08-24T06:20:34.949Z,95474.94
2022-08-24T06:23:02.875Z,95481.97
2022-08-24T06:25:57.914Z,95481.44
2022-08-24T06:28:26.028Z,95480.91
2022-08-24T06:31:02.684Z,95487.31
2022-08-24T06:33:32.028Z,95484.28
2022-08-24T06:36:00.222Z,95494.13
2022-08-24T06:38:30.639Z,95494.25
2022-08-24T06:40:59.484Z,95493.38
2022-08-24T06:43:27.460Z,95492.22
2022-08-24T06:45:57.382Z,95483.75
2022-08-24T06:48:32.274Z,95490.66
2022-08-24T06:51:01.568Z,95481.25
2022-08-24T06:53:29.585Z,95492.06
2022-08-24T06:56:00.225Z,95491.50
2022-08-24T06:58:30.299Z,95493.03
2022-08-24T07:01:09.829Z,95503.09
2022-08-24T07:03:39.953Z,95506.47
2022-08-24T07:06:43.119Z,95509.00
2022-08-24T07:09:11.005Z,95505.50
2022-08-24T07:11:38.946Z,95520.34
2022-08-24T07:14:07.880Z,95509.38
2022-08-24T07:16:37.684Z,95512.44
2022-08-24T07:19:07.462Z,95511.19
2022-08-24T07:21:36.112Z,95509.25
2022-08-24T07:24:07.109Z,95511.09
2022-08-24T07:26:38.745Z,95508.72
2022-08-24T07:29:30.650Z,95515.47
2022-08-24T07:32:01.737Z,95520.13
2022-08-24T07:34:39.238Z,95516.69
2022-08-24T07:37:08.897Z,95520.00
2022-08-24T07:39:40.209Z,95515.75
2022-08-24T07:42:13.729Z,95512.06
2022-08-24T07:44:45.735Z,95514.59
2022-08-24T07:47:39.450Z,95517.88
2022-08-24T07:50:05.738Z,95519.69
2022-08-24T07:52:33.672Z,95519.75
2022-08-24T07:55:02.803Z,95515.75
2022-08-24T07:57:31.274Z,95517.44
2022-08-24T08:00:00.712Z,95512.94
2022-08-24T08:02:30.024Z,95524.28
2022-08-24T08:05:06.647Z,95510.06
2022-08-24T08:07:34.723Z,95512.41
2022-08-24T08:10:03.214Z,95511.44
2022-08-24T08:12:34.977Z,95506.56
2022-08-24T08:15:02.974Z,95503.78
2022-08-24T08:17:30.981Z,95501.53
2022-08-24T08:19:58.939Z,95507.97
2022-08-24T08:22:45.944Z,95508.84
2022-08-24T08:25:33.175Z,95503.25
2022-08-24T08:28:13.031Z,95500.19
2022-08-24T08:30:52.806Z,95507.63
2022-08-24T08:33:20.938Z,95505.38
2022-08-24T08:35:50.232Z,95504.97
2022-08-24T08:38:20.175Z,95512.59
2022-08-24T08:41:00.858Z,95511.34
2022-08-24T08:43:41.250Z,95512.91
2022-08-24T08:46:25.150Z,95505.34
2022-08-24T08:50:00.345Z,95507.53
2022-08-24T08:52:56.736Z,95515.13
2022-08-24T08:55:32.107Z,95506.06
2022-08-24T08:58:19.537Z,95508.22
2022-08-24T09:01:01.482Z,95505.41
2022-08-24T09:04:00.532Z,95509.31
2022-08-24T09:06:59.868Z,95508.00
2022-08-24T09:09:47.036Z,95520.63
2022-08-24T09:12:25.348Z,95507.81
2022-08-24T09:15:08.624Z,95509.16
2022-08-24T09:17:59.288Z,95510.50
2022-08-24T09:20:51.415Z,95513.91
2022-08-24T09:23:35.904Z,95509.78
2022-08-24T09:26:10.385Z,95503.50
2022-08-24T09:28:46.703Z,95500.38
2022-08-24T09:31:51.657Z,95494.63
2022-08-24T09:34:31.673Z,95498.28
2022-08-24T09:37:12.202Z,95504.75
2022-08-24T09:39:59.956Z,95499.31
2022-08-24T09:43:00.720Z,95498.28
2022-08-24T09:45:52.087Z,95498.56
2022-08-24T09:49:01.866Z,95498.56
2022-08-24T09:51:58.024Z,95503.22
2022-08-24T09:54:53.412Z,95497.13
2022-08-24T10:00:31.888Z,95491.41
2022-08-24T10:03:18.061Z,95495.88
2022-08-24T10:06:08.628Z,95493.03
2022-08-24T10:08:53.743Z,95478.81
2022-08-24T10:11:31.746Z,95487.09
2022-08-24T10:14:07.765Z,95481.75
2022-08-24T10:16:45.589Z,95480.34
2022-08-24T10:19:31.881Z,95468.31
2022-08-24T10:22:09.886Z,95471.19
2022-08-24T10:24:49.344Z,95469.81
2022-08-24T10:27:35.192Z,95469.88
2022-08-24T10:30:30.577Z,95470.75
2022-08-24T10:33:21.292Z,95466.00
2022-08-24T10:36:31.635Z,95472.31
2022-08-24T10:39:37.660Z,95467.16
2022-08-24T10:43:04.710Z,95487.94
2022-08-24T10:46:10.733Z,95470.50
2022-08-24T10:49:09.928Z,95466.34
2022-08-24T10:51:51.706Z,95471.94
2022-08-24T10:54:21.040Z,95462.22
2022-08-24T10:56:57.363Z,95463.97
2022-08-24T10:59:29.776Z,95468.28
2022-08-24T11:02:12.868Z,95460.75
2022-08-24T11:04:41.573Z,95455.16
2022-08-24T11:07:18.411Z,95458.56
2022-08-24T11:09:53.397Z,95457.47
2022-08-24T11:12:30.095Z,95466.00
2022-08-24T11:14:59.930Z,95464.88
2022-08-24T11:17:32.536Z,95458.63
2022-08-24T11:20:00.356Z,95458.22
2022-08-24T11:22:34.259Z,95458.00
2022-08-24T11:25:05.923Z,95462.91
2022-08-24T11:27:38.225Z,95462.53
2022-08-24T11:30:22.524Z,95468.88
2022-08-24T11:32:57.031Z,95457.16
2022-08-24T11:35:27.748Z,95450.66
2022-08-24T11:38:05.367Z,95458.59
2022-08-24T11:40:41.021Z,95444.84
2022-08-24T11:43:29.967Z,95451.78
2022-08-24T11:46:08.533Z,95451.28
2022-08-24T11:48:47.572Z,95452.44
2022-08-24T11:51:27.712Z,95449.88
2022-08-24T11:54:04.275Z,95447.69
2022-08-24T11:56:42.238Z,95453.03
2022-08-24T11:59:19.136Z,95453.97
2022-08-24T12:01:52.444Z,95450.91
2022-08-24T12:04:37.323Z,95457.50
2022-08-24T12:07:16.331Z,95453.69
2022-08-24T12:09:58.636Z,95459.66
2022-08-24T12:12:33.673Z,95456.59
2022-08-24T12:15:09.009Z,95443.69
2022-08-24T12:17:42.294Z,95446.28
2022-08-24T12:20:22.905Z,95447.78
2022-08-24T12:22:53.627Z,95451.75
2022-08-24T12:25:40.735Z,95451.03
2022-08-24T12:28:10.251Z,95445.09
2022-08-24T12:30:38.421Z,95442.13
2022-08-24T12:33:11.328Z,95438.53
2022-08-24T12:35:42.223Z,95441.75
2022-08-24T12:38:16.846Z,95447.84
2022-08-24T12:40:52.476Z,95437.44
2022-08-24T12:43:26.281Z,95443.72
2022-08-24T12:45:56.800Z,95437.88
2022-08-24T12:48:30.597Z,95448.44
2022-08-24T12:51:16.018Z,95428.03
2022-08-24T12:54:12.324Z,95439.88
2022-08-24T12:57:02.593Z,95432.81
2022-08-24T12:59:34.269Z,95432.69
2022-08-24T13:02:06.154Z,95435.38
2022-08-24T13:04:41.518Z,95438.03
2022-08-24T13:07:26.645Z,95435.78
2022-08-24T13:10:11.996Z,95431.53
2022-08-24T13:13:11.837Z,95429.34
2022-08-24T13:16:02.941Z,95436.13
2022-08-24T13:19:09.977Z,95433.72
2022-08-24T13:21:51.920Z,95431.97
2022-08-24T13:25:00.841Z,95439.34
2022-08-24T13:28:02.192Z,95430.66
2022-08-24T13:31:00.054Z,95430.19
2022-08-24T13:33:33.406Z,95433.78
2022-08-24T13:36:06.365Z,95427.59
2022-08-24T13:39:07.539Z,95437.44
2022-08-24T13:42:07.644Z,95427.88
2022-08-24T13:45:00.923Z,95419.09
2022-08-24T13:47:35.375Z,95414.81
2022-08-24T13:50:11.724Z,95412.69
2022-08-24T13:52:49.309Z,95424.94
2022-08-24T13:55:32.657Z,95421.22
2022-08-24T13:58:20.283Z,95424.53
2022-08-24T14:00:53.359Z,95412.81
2022-08-24T14:03:32.602Z,95414.94
2022-08-24T14:06:17.262Z,95414.81
2022-08-24T14:08:56.876Z,95417.59
2022-08-24T14:11:42.852Z,95422.31
2022-08-24T14:14:17.707Z,95420.50
2022-08-24T14:17:20.144Z,95418.91
2022-08-24T14:20:02.200Z,95415.13
2022-08-24T14:22:38.101Z,95418.53
2022-08-24T14:25:18.126Z,95415.75
2022-08-24T14:27:48.644Z,95414.88
2022-08-24T14:30:46.799Z,95411.72
2022-08-24T14:33:27.285Z,95416.78
2022-08-24T14:36:21.840Z,95400.38
2022-08-24T14:39:04.659Z,95405.84
2022-08-24T14:41:47.574Z,95402.50
2022-08-24T14:44:25.163Z,95402.69
2022-08-24T14:47:04.145Z,95406.25
2022-08-24T14:49:39.224Z,95398.88
2022-08-24T14:52:32.269Z,95403.53
2022-08-24T14:55:13.692Z,95403.69
2022-08-24T14:58:15.636Z,95402.84
2022-08-24T15:01:13.854Z,95409.69
2022-08-24T15:04:04.644Z,95399.38
2022-08-24T15:06:41.869Z,95403.94
2022-08-24T15:09:12.788Z,95416.72
2022-08-24T15:11:42.682Z,95406.16
2022-08-24T15:14:33.597Z,95409.50
2022-08-24T15:17:06.306Z,95404.19
2022-08-24T15:19:45.364Z,95396.56
2022-08-24T15:22:23.116Z,95396.38
2022-08-24T15:24:56.629Z,95393.53
2022-08-24T15:27:38.071Z,95389.94
2022-08-24T15:30:08.729Z,95404.59
2022-08-24T15:32:48.961Z,95403.97
2022-08-24T15:35:29.955Z,95399.00
2022-08-24T15:37:58.889Z,95405.91
2022-08-24T15:40:30.102Z,95404.66
2022-08-24T15:43:03.953Z,95398.63
2022-08-24T15:45:32.954Z,95386.13
2022-08-24T15:48:04.437Z,95402.38
2022-08-24T15:50:36.070Z,95404.59
2022-08-24T15:53:07.764Z,95401.13
2022-08-24T15:55:39.944Z,95398.97
2022-08-24T15:58:34.463Z,95398.47
2022-08-24T16:01:38.697Z,95398.28
2022-08-24T16:04:09.663Z,95403.34
2022-08-24T16:06:42.204Z,95406.19
2022-08-24T16:09:15.395Z,95397.97
2022-08-24T16:11:45.954Z,95398.28
2022-08-24T16:14:26.117Z,95396.31
2022-08-24T16:16:56.973Z,95398.59
2022-08-24T16:19:28.000Z,95397.63
2022-08-24T16:22:01.132Z,95397.50
2022-08-24T16:24:34.257Z,95401.63
2022-08-24T16:27:07.077Z,95393.91
2022-08-24T16:29:53.812Z,95406.28
2022-08-24T16:32:32.067Z,95399.19
2022-08-24T16:35:19.061Z,95393.81
2022-08-24T16:37:46.976Z,95395.66
2022-08-24T16:40:15.147Z,95400.03
2022-08-24T16:42:43.205Z,95392.59
2022-08-24T16:45:17.277Z,95393.97
2022-08-24T16:47:46.811Z,95401.97
2022-08-24T16:50:17.061Z,95396.97
2022-08-24T16:52:45.097Z,95399.81
2022-08-24T16:55:14.636Z,95388.16
2022-08-24T16:57:43.159Z,95403.81
2022-08-24T17:00:17.449Z,95383.75
2022-08-24T17:02:46.588Z,95407.06
2022-08-24T17:05:15.538Z,95396.78
2022-08-24T17:07:43.996Z,95394.56
2022-08-24T17:10:15.377Z,95395.22
2022-08-24T17:12:43.347Z,95405.69
2022-08-24T17:15:16.150Z,95391.00
2022-08-24T17:17:48.671Z,95396.84
2022-08-24T17:20:17.124Z,95397.38
2022-08-24T17:22:44.960Z,95403.47
2022-08-24T17:25:12.837Z,95400.94
2022-08-24T17:27:41.033Z,95396.19
2022-08-24T17:30:10.978Z,95398.97
2022-08-24T17:32:40.250Z,95395.47
2022-08-24T17:35:08.863Z,95395.03
2022-08-24T17:37:38.070Z,95394.78
2022-08-24T17:40:19.430Z,95395.41
2022-08-24T17:42:51.161Z,95399.22
2022-08-24T17:45:20.355Z,95409.28
2022-08-24T17:47:50.727Z,95403.53
2022-08-24T17:50:19.852Z,95402.09
2022-08-24T17:52:48.482Z,95404.72
2022-08-24T17:55:25.231Z,95398.03
2022-08-24T17:57:53.858Z,95407.22
2022-08-24T18:00:21.806Z,95412.47
2022-08-24T18:02:51.208Z,95408.00
2022-08-24T18:05:19.561Z,95402.00
2022-08-24T18:07:54.660Z,95409.34
2022-08-24T18:10:25.856Z,95414.31
2022-08-24T18:12:54.239Z,95398.69
2022-08-24T18:15:34.823Z,95408.59
2022-08-24T18:18:09.470Z,95408.88
2022-08-24T18:20:39.970Z,95407.56
2022-08-24T18:23:11.903Z,95415.16
2022-08-24T18:25:46.760Z,95418.81
2022-08-24T18:28:15.728Z,95417.72
2022-08-24T18:30:44.332Z,95423.19
2022-08-24T18:33:14.029Z,95419.78
2022-08-24T18:35:44.504Z,95417.91
2022-08-24T18:38:13.963Z,95411.88
2022-08-24T18:40:52.950Z,95419.16
2022-08-24T18:43:26.403Z,95427.97
2022-08-24T18:45:55.027Z,95429.78
2022-08-24T18:48:24.861Z,95439.97
2022-08-24T18:50:54.367Z,95425.84
2022-08-24T18:53:25.358Z,95438.63
2022-08-24T18:55:53.378Z,95437.28
2022-08-24T18:58:22.173Z,95437.97
2022-08-24T19:00:51.253Z,95434.06
2022-08-24T19:03:22.370Z,95432.19
2022-08-24T19:05:51.789Z,95437.34
2022-08-24T19:08:19.965Z,95435.22
2022-08-24T19:10:51.648Z,95429.72
2022-08-24T19:13:19.962Z,95435.88
2022-08-24T19:15:48.995Z,95439.47
2022-08-24T19:18:18.591Z,95439.94
2022-08-24T19:20:50.156Z,95440.13
2022-08-24T19:23:22.402Z,95440.31
2022-08-24T19:25:50.549Z,95442.41
2022-08-24T19:28:22.027Z,95432.75
2022-08-24T19:30:50.057Z,95441.66
2022-08-24T19:33:25.585Z,95435.66
2022-08-24T19:35:54.015Z,95437.41
2022-08-24T19:38:25.764Z,95432.16
2022-08-24T19:40:55.570Z,95429.28
2022-08-24T19:43:25.856Z,95425.56
2022-08-24T19:46:05.249Z,95430.47
2022-08-24T19:48:34.908Z,95433.00
2022-08-24T19:51:04.212Z,95431.91
2022-08-24T19:53:35.396Z,95430.78
2022-08-24T19:56:03.956Z,95424.50
2022-08-24T19:58:40.318Z,95425.31
2022-08-24T20:01:13.427Z,95421.94
2022-08-24T20:03:41.737Z,95432.34
2022-08-24T20:06:09.729Z,95428.94
2022-08-24T20:08:39.457Z,95421.38
2022-08-24T20:11:07.709Z,95421.13
2022-08-24T20:13:35.847Z,95427.91
2022-08-24T20:16:05.770Z,95421.66
2022-08-24T20:18:39.464Z,95425.31
2022-08-24T20:21:08.469Z,95431.00
2022-08-24T20:23:36.302Z,95425.00
2022-08-24T20:26:08.152Z,95428.88
2022-08-24T20:28:40.993Z,95434.22
2022-08-24T20:31:09.424Z,95433.69
2022-08-24T20:33:37.510Z,95422.97
2022-08-24T20:36:06.410Z,95432.59
2022-08-24T20:38:35.683Z,95425.72
2022-08-24T20:41:05.298Z,95431.72
2022-08-24T20:43:33.353Z,95438.00
2022-08-24T20:46:01.891Z,95433.91
2022-08-24T20:48:32.566Z,95429.97
2022-08-24T20:51:00.998Z,95439.09
2022-08-24T20:53:28.990Z,95434.53
2022-08-24T20:55:58.285Z,95434.88
2022-08-24T20:58:27.759Z,95431.47
2022-08-24T21:00:55.608Z,95433.13
2022-08-24T21:03:23.960Z,95433.59
2022-08-24T21:05:52.536Z,95437.16
2022-08-24T21:08:21.200Z,95427.66
2022-08-24T21:10:49.476Z,95433.28
2022-08-24T21:13:17.695Z,95417.56
2022-08-24T21:15:48.782Z,95422.13
2022-08-24T21:18:16.914Z,95423.91
2022-08-24T21:21:00.774Z,95416.22
2022-08-24T21:23:32.897Z,95420.97
2022-08-24T21:26:03.069Z,95418.03
2022-08-24T21:28:31.861Z,95415.44
2022-08-24T21:31:05.630Z,95419.53
2022-08-24T21:33:57.240Z,95416.84
2022-08-24T21:36:26.580Z,95413.09
2022-08-24T21:38:54.971Z,95406.56
2022-08-24T21:41:23.499Z,95406.25
2022-08-24T21:43:52.804Z,95411.84
2022-08-24T21:46:25.026Z,95406.09
2022-08-24T21:48:52.972Z,95412.25
2022-08-24T21:51:20.831Z,95402.09
2022-08-24T21:53:48.714Z,95404.69
2022-08-24T21:56:23.169Z,95410.91
2022-08-24T21:58:51.007Z,95407.63
2022-08-24T22:01:18.910Z,95415.53
2022-08-24T22:03:48.169Z,95418.22
2022-08-24T22:06:16.095Z,95404.78
2022-08-24T22:08:44.613Z,95413.38
2022-08-24T22:11:14.390Z,95408.34
2022-08-24T22:13:42.757Z,95411.81
2022-08-24T22:16:12.429Z,95405.00
2022-08-24T22:18:40.913Z,95406.91
2022-08-24T22:21:11.945Z,95403.13
2022-08-24T22:23:40.954Z,95399.75
2022-08-24T22:26:10.338Z,95398.97
2022-08-24T22:28:40.022Z,95396.22
2022-08-24T22:31:16.087Z,95397.72
2022-08-24T22:33:44.033Z,95382.59
2022-08-24T22:36:14.418Z,95392.28
2022-08-24T22:38:42.432Z,95393.78
2022-08-24T22:41:12.402Z,95380.72
2022-08-24T22:43:57.857Z,95379.94
2022-08-24T22:46:27.079Z,95376.41
2022-08-24T22:48:55.454Z,95364.84
2022-08-24T22:51:24.679Z,95363.22
2022-08-24T22:53:53.756Z,95364.78
2022-08-24T22:56:25.364Z,95365.88
2022-08-24T22:58:55.888Z,95371.31
2022-08-24T23:01:27.220Z,95368.28
2022-08-24T23:03:56.489Z,95364.34
2022-08-24T23:06:26.153Z,95364.84
2022-08-24T23:08:54.073Z,95364.28
2022-08-24T23:11:23.198Z,95360.66
2022-08-24T23:13:51.293Z,95362.91
2022-08-24T23:16:19.269Z,95361.66
2022-08-24T23:19:04.794Z,95362.13
2022-08-24T23:21:34.387Z,95359.53
2022-08-24T23:24:02.539Z,95361.56
2022-08-24T23:26:32.562Z,95359.56
2022-08-24T23:29:01.484Z,95363.59
2022-08-24T23:31:30.250Z,95353.34
2022-08-24T23:33:58.841Z,95354.81
2022-08-24T23:36:28.975Z,95352.69
2022-08-24T23:39:00.481Z,95351.88
2022-08-24T23:41:31.247Z,95349.69
2022-08-24T23:44:01.572Z,95344.97
2022-08-24T23:46:29.581Z,95337.41
2022-08-24T23:49:00.517Z,95336.03
2022-08-24T23:51:30.898Z,95331.06
2022-08-24T23:54:00.886Z,95327.13
2022-08-24T23:56:31.874Z,95333.00
2022-08-24T23:59:02.981Z,95331.97
